Time;durP1;ratioP1;P1;durP2;ratioP2;P2;SDS_P1;SDS_P2;PMS_P1;PMS_P2;Temp;Humidity;BMP_temperature;BMP_pressure;BME280_temperature;BME280_humidity;BME280_pressure;Samples;Min_cycle;Max_cycle;Signal;HPM_P1;HPM_P2
2022/11/23 09:03:08;;;;;;;57.67;20.58;;;;;;;;;;5147098;27;20446;-53
2022/11/23 09:05:36;;;;;;;55.00;21.80;;;;;;;;;;5146234;27;20059;-48
2022/11/23 09:08:03;;;;;;;49.60;20.77;;;;;;;;;;5146821;27;20038;-46
2022/11/23 09:10:29;;;;;;;49.20;20.40;;;;;;;;;;5146949;27;20062;-44
2022/11/23 09:12:57;;;;;;;45.83;19.23;;;;;;;;;;5146878;27;20483;-45
2022/11/23 09:15:23;;;;;;;49.55;20.05;;;;;;;;;;5146822;27;20039;-44
2022/11/23 09:17:50;;;;;;;45.95;19.08;;;;;;;;;;5147031;27;20035;-46
2022/11/23 09:20:17;;;;;;;62.58;22.60;;;;;;;;;;5127147;27;20041;-45
2022/11/23 09:22:48;;;;;;;51.95;19.25;;;;;;;;;;5146507;27;20050;-46
2022/11/23 09:25:15;;;;;;;51.92;19.50;;;;;;;;;;5145962;27;20300;-43
2022/11/23 09:27:42;;;;;;;43.00;17.98;;;;;;;;;;5146479;27;20521;-44
2022/11/23 09:30:09;;;;;;;48.67;20.13;;;;;;;;;;5147066;27;20043;-46
2022/11/23 09:32:35;;;;;;;53.03;19.92;;;;;;;;;;5146434;27;20039;-47
2022/11/23 09:35:02;;;;;;;43.92;18.73;;;;;;;;;;5146467;27;20043;-46
2022/11/23 09:37:29;;;;;;;57.78;21.77;;;;;;;;;;5146923;27;20043;-43
2022/11/23 09:39:55;;;;;;;52.20;20.30;;;;;;;;;;5147531;27;20047;-45
2022/11/23 09:42:28;;;;;;;47.25;19.38;;;;;;;;;;5145840;27;20043;-44
2022/11/23 09:45:20;;;;;;;48.73;19.03;;;;;;;;;;5138730;27;20111;-44
2022/11/23 09:47:47;;;;;;;48.45;19.95;;;;;;;;;;5042066;28;20129;-43
2022/11/23 09:50:23;;;;;;;63.75;24.38;;;;;;;;;;5042038;28;20140;-44
2022/11/23 09:52:50;;;;;;;56.38;21.30;;;;;;;;;;5042239;28;20068;-45
2022/11/23 09:55:22;;;;;;;45.40;19.73;;;;;;;;;;5043463;28;20041;-43
2022/11/23 09:57:51;;;;;;;49.03;21.52;;;;;;;;;;5041857;28;20053;-44
2022/11/23 10:00:21;;;;;;;49.72;21.23;;;;;;;;;;5041872;28;20056;-44
2022/11/23 10:02:48;;;;;;;52.22;20.90;;;;;;;;;;5041670;28;20128;-43
2022/11/23 10:05:20;;;;;;;62.15;23.23;;;;;;;;;;5042128;28;20037;-44
2022/11/23 10:07:52;;;;;;;58.75;22.80;;;;;;;;;;5042219;28;20053;-45
2022/11/23 10:10:37;;;;;;;48.28;20.67;;;;;;;;;;5043124;28;20168;-45
2022/11/23 10:13:25;;;;;;;47.53;20.67;;;;;;;;;;5031521;28;20041;-43
2022/11/23 10:16:00;;;;;;;45.03;19.75;;;;;;;;;;5029052;28;20484;-43
2022/11/23 10:18:45;;;;;;;45.75;18.63;;;;;;;;;;5027663;28;20058;-45
2022/11/23 10:21:30;;;;;;;46.70;19.95;;;;;;;;;;5028202;28;20050;-45
2022/11/23 10:23:57;;;;;;;56.47;21.75;;;;;;;;;;5045958;27;20043;-44
2022/11/23 10:26:27;;;;;;;53.88;21.83;;;;;;;;;;5129907;27;20061;-44
2022/11/23 10:28:54;;;;;;;47.17;19.92;;;;;;;;;;5130673;27;20044;-44
2022/11/23 10:31:22;;;;;;;50.55;21.38;;;;;;;;;;5132684;27;20035;-44
2022/11/23 10:34:03;;;;;;;55.75;21.55;;;;;;;;;;5131815;27;20391;-48
2022/11/23 10:36:29;;;;;;;53.08;23.13;;;;;;;;;;5131118;27;20122;-46
2022/11/23 10:38:57;;;;;;;55.28;21.17;;;;;;;;;;5109008;27;20448;-48
2022/11/23 10:41:24;;;;;;;56.33;21.70;;;;;;;;;;5131724;27;20395;-45
2022/11/23 10:43:51;;;;;;;51.58;20.92;;;;;;;;;;5131350;27;20047;-45
2022/11/23 10:46:28;;;;;;;44.85;18.48;;;;;;;;;;5132570;27;20039;-44
2022/11/23 10:49:06;;;;;;;40.13;17.70;;;;;;;;;;5132090;27;20058;-45
2022/11/23 10:51:33;;;;;;;52.90;19.70;;;;;;;;;;5131189;27;20043;-46
2022/11/23 10:54:04;;;;;;;55.92;22.00;;;;;;;;;;5129086;27;20031;-43
2022/11/23 10:56:32;;;;;;;60.58;23.85;;;;;;;;;;5130426;27;20089;-47
2022/11/23 10:58:58;;;;;;;52.75;23.35;;;;;;;;;;5131497;27;20039;-44
2022/11/23 11:01:26;;;;;;;55.63;22.20;;;;;;;;;;5132333;27;20058;-46
2022/11/23 11:03:54;;;;;;;55.92;22.83;;;;;;;;;;5131413;27;20039;-44
2022/11/23 11:06:25;;;;;;;44.28;19.83;;;;;;;;;;5129788;27;20522;-44
2022/11/23 11:08:55;;;;;;;50.58;21.15;;;;;;;;;;5129870;27;20039;-45
2022/11/23 11:11:30;;;;;;;56.50;22.83;;;;;;;;;;5129589;27;20055;-44
2022/11/23 11:14:01;;;;;;;47.25;19.42;;;;;;;;;;5129329;27;20035;-45
2022/11/23 11:16:31;;;;;;;51.55;21.63;;;;;;;;;;5130768;27;20536;-45
2022/11/23 11:18:58;;;;;;;44.42;18.75;;;;;;;;;;5129654;27;20100;-45
2022/11/23 11:21:28;;;;;;;47.90;20.23;;;;;;;;;;5129045;27;20348;-44
2022/11/23 11:24:05;;;;;;;50.00;20.27;;;;;;;;;;5129298;27;20453;-44
2022/11/23 11:26:32;;;;;;;57.45;22.65;;;;;;;;;;5128666;27;20746;-46
2022/11/23 11:29:04;;;;;;;48.65;19.60;;;;;;;;;;5111999;27;20053;-45
2022/11/23 11:31:33;;;;;;;49.97;21.42;;;;;;;;;;5130698;27;20794;-46
2022/11/23 11:34:08;;;;;;;56.92;22.55;;;;;;;;;;5130270;27;20066;-45
2022/11/23 11:36:38;;;;;;;54.38;21.88;;;;;;;;;;5129508;27;20040;-43
2022/11/23 11:39:09;;;;;;;50.05;20.92;;;;;;;;;;5128815;27;20461;-47
2022/11/23 11:41:46;;;;;;;56.47;22.05;;;;;;;;;;5122772;27;20129;-45
2022/11/23 11:44:20;;;;;;;52.15;22.75;;;;;;;;;;5130416;27;20039;-47
2022/11/23 11:46:50;;;;;;;61.53;24.48;;;;;;;;;;5129006;27;20096;-47
2022/11/23 11:49:23;;;;;;;55.17;23.50;;;;;;;;;;5131421;27;20036;-45
2022/11/23 11:51:54;;;;;;;57.13;24.05;;;;;;;;;;5129321;27;20039;-46
2022/11/23 11:54:21;;;;;;;54.63;21.58;;;;;;;;;;5130509;27;20130;-46
2022/11/23 11:56:51;;;;;;;53.72;23.95;;;;;;;;;;5125948;27;20035;-46
2022/11/23 11:59:27;;;;;;;54.72;22.88;;;;;;;;;;5130588;27;20035;-46
2022/11/23 12:02:20;;;;;;;63.58;24.80;;;;;;;;;;5129592;27;20111;-45
2022/11/23 12:04:55;;;;;;;58.85;24.65;;;;;;;;;;5124507;27;20396;-48
2022/11/23 12:07:27;;;;;;;54.40;23.42;;;;;;;;;;5130597;27;20039;-47
2022/11/23 12:09:59;;;;;;;51.37;22.83;;;;;;;;;;5129056;27;20058;-46
2022/11/23 12:12:33;;;;;;;58.83;24.35;;;;;;;;;;5125896;27;20096;-49
2022/11/23 12:14:59;;;;;;;55.88;23.58;;;;;;;;;;5130073;27;20044;-46
2022/11/23 12:17:44;;;;;;;52.45;23.52;;;;;;;;;;5130231;27;20043;-45
2022/11/23 12:20:13;;;;;;;61.05;26.25;;;;;;;;;;5125723;27;20504;-45
2022/11/23 12:22:58;;;;;;;60.95;25.63;;;;;;;;;;5127962;27;20047;-47
2022/11/23 12:25:40;;;;;;;66.32;25.35;;;;;;;;;;5128536;27;20039;-47
2022/11/23 12:28:25;;;;;;;63.45;26.27;;;;;;;;;;5128739;27;20568;-45
2022/11/23 12:31:10;;;;;;;54.47;23.35;;;;;;;;;;5128481;27;20119;-48
2022/11/23 12:33:52;;;;;;;65.05;25.25;;;;;;;;;;5118820;27;20058;-46
2022/11/23 12:36:24;;;;;;;56.75;24.75;;;;;;;;;;5124729;27;20035;-45
2022/11/23 12:38:54;;;;;;;66.30;27.10;;;;;;;;;;5127786;27;20113;-51
2022/11/23 12:41:59;;;;;;;70.90;27.10;;;;;;;;;;5120775;27;20042;-46
2022/11/23 12:44:31;;;;;;;77.00;26.23;;;;;;;;;;5040185;28;20428;-45
2022/11/23 12:47:04;;;;;;;72.20;30.92;;;;;;;;;;5038989;28;20055;-45
2022/11/23 12:49:40;;;;;;;81.13;30.77;;;;;;;;;;5040816;28;20159;-45
2022/11/23 12:52:25;;;;;;;71.40;27.15;;;;;;;;;;5040357;28;20098;-45
2022/11/23 12:55:00;;;;;;;74.38;28.75;;;;;;;;;;5039043;28;20045;-46
2022/11/23 12:57:30;;;;;;;70.00;27.88;;;;;;;;;;5038488;28;20053;-45
2022/11/23 13:00:13;;;;;;;65.20;29.10;;;;;;;;;;5041159;28;20049;-47
2022/11/23 13:02:49;;;;;;;82.85;34.63;;;;;;;;;;5039048;28;20485;-45
2022/11/23 13:05:18;;;;;;;89.47;34.20;;;;;;;;;;5037490;28;20522;-45
2022/11/23 13:07:56;;;;;;;80.15;31.35;;;;;;;;;;5039178;28;20061;-46
2022/11/23 13:10:42;;;;;;;77.07;29.80;;;;;;;;;;5037851;28;20094;-45
2022/11/23 13:13:27;;;;;;;79.03;31.73;;;;;;;;;;5040337;28;20041;-47
2022/11/23 13:16:12;;;;;;;81.25;31.42;;;;;;;;;;5106913;28;20139;-45
2022/11/23 13:19:01;;;;;;;77.70;31.27;;;;;;;;;;5126781;27;20556;-45
2022/11/23 13:21:38;;;;;;;81.55;32.42;;;;;;;;;;5127953;27;20406;-45
2022/11/23 13:24:23;;;;;;;84.93;32.65;;;;;;;;;;5128262;28;20112;-45
2022/11/23 13:27:25;;;;;;;74.85;30.67;;;;;;;;;;5124670;27;20050;-45
2022/11/23 13:29:59;;;;;;;81.60;30.20;;;;;;;;;;5126351;27;20036;-45
2022/11/23 13:32:34;;;;;;;82.55;30.73;;;;;;;;;;5128152;28;20049;-46
2022/11/23 13:35:00;;;;;;;76.90;29.77;;;;;;;;;;5126215;27;20425;-45
2022/11/23 13:37:27;;;;;;;79.00;30.73;;;;;;;;;;5129497;28;20035;-46
2022/11/23 13:39:54;;;;;;;73.85;29.25;;;;;;;;;;5128003;28;20035;-44
2022/11/23 13:42:20;;;;;;;68.80;28.45;;;;;;;;;;5128354;27;20047;-45
2022/11/23 13:44:47;;;;;;;77.13;30.63;;;;;;;;;;5128362;27;20035;-45
2022/11/23 13:47:16;;;;;;;81.40;31.52;;;;;;;;;;5128093;27;20059;-46
2022/11/23 13:49:50;;;;;;;80.15;31.85;;;;;;;;;;5132071;27;20043;-45
2022/11/23 13:52:19;;;;;;;92.75;33.13;;;;;;;;;;5131676;27;20039;-45
2022/11/23 13:55:04;;;;;;;74.18;31.50;;;;;;;;;;5132427;27;20043;-48
2022/11/23 13:57:47;;;;;;;84.18;30.33;;;;;;;;;;5130942;27;20047;-46
2022/11/23 14:00:32;;;;;;;89.00;32.17;;;;;;;;;;5129339;27;20043;-48
2022/11/23 14:03:17;;;;;;;86.38;32.13;;;;;;;;;;5130224;27;20058;-49
2022/11/23 14:05:46;;;;;;;93.38;34.00;;;;;;;;;;5130385;27;20092;-46
2022/11/23 14:08:15;;;;;;;96.60;36.25;;;;;;;;;;5132273;27;20031;-48
2022/11/23 14:10:41;;;;;;;114.25;38.67;;;;;;;;;;5132061;27;20039;-50
2022/11/23 14:13:19;;;;;;;102.50;37.30;;;;;;;;;;5114063;27;20482;-47
2022/11/23 14:15:52;;;;;;;104.85;38.95;;;;;;;;;;5130101;27;20418;-48
2022/11/23 14:18:19;;;;;;;;;;;;;;;;;;5132506;27;20035;-42
2022/11/23 14:21:18;;;;;;;99.00;34.83;;;;;;;;;;5128392;27;20382;-45
2022/11/23 14:24:05;;;;;;;112.70;37.05;;;;;;;;;;5039758;28;20049;-48
2022/11/23 14:26:45;;;;;;;116.75;37.58;;;;;;;;;;5036110;28;20122;-47
2022/11/23 14:29:24;;;;;;;105.82;36.20;;;;;;;;;;5039831;28;20119;-47
2022/11/23 14:32:08;;;;;;;109.38;35.88;;;;;;;;;;5038915;28;20046;-48
2022/11/23 14:34:41;;;;;;;114.03;36.85;;;;;;;;;;5038535;28;20132;-46
2022/11/23 14:37:08;;;;;;;97.63;35.53;;;;;;;;;;5042386;28;20179;-48
2022/11/23 14:39:40;;;;;;;105.43;35.60;;;;;;;;;;5037041;28;20084;-46
2022/11/23 14:42:12;;;;;;;118.20;38.35;;;;;;;;;;5041622;28;20060;-49
2022/11/23 14:44:40;;;;;;;109.82;39.35;;;;;;;;;;5037074;28;20037;-51
2022/11/23 14:47:08;;;;;;;106.78;36.72;;;;;;;;;;5037996;28;20076;-50
2022/11/23 14:49:35;;;;;;;115.00;41.38;;;;;;;;;;5036130;28;20084;-45
2022/11/23 14:52:02;;;;;;;115.63;41.15;;;;;;;;;;5039066;28;20523;-46
2022/11/23 14:54:29;;;;;;;123.05;42.28;;;;;;;;;;5035736;28;20045;-46
2022/11/23 14:56:58;;;;;;;144.00;43.90;;;;;;;;;;5040051;28;20474;-48
2022/11/23 14:59:26;;;;;;;112.38;37.83;;;;;;;;;;5076726;27;20043;-47
2022/11/23 15:01:53;;;;;;;114.05;37.25;;;;;;;;;;5128956;27;20064;-46
2022/11/23 15:04:22;;;;;;;110.63;40.67;;;;;;;;;;5131120;27;20545;-49
2022/11/23 15:06:50;;;;;;;100.55;36.92;;;;;;;;;;5129897;27;20035;-48
2022/11/23 15:09:26;;;;;;;114.38;39.03;;;;;;;;;;5130088;27;20130;-48
2022/11/23 15:12:03;;;;;;;110.88;39.80;;;;;;;;;;5129403;27;20190;-46
2022/11/23 15:14:30;;;;;;;110.65;38.42;;;;;;;;;;5129848;27;20042;-46
2022/11/23 15:17:11;;;;;;;109.25;38.67;;;;;;;;;;5110637;27;20059;-46
2022/11/23 15:19:37;;;;;;;120.68;39.50;;;;;;;;;;5130120;27;20514;-46
2022/11/23 15:22:04;;;;;;;98.10;35.97;;;;;;;;;;5130720;27;20047;-46
2022/11/23 15:24:30;;;;;;;102.90;37.10;;;;;;;;;;5129288;27;20035;-45
2022/11/23 15:27:03;;;;;;;121.38;41.80;;;;;;;;;;5128712;27;20124;-47
2022/11/23 15:29:38;;;;;;;117.88;41.63;;;;;;;;;;5129354;27;20046;-47
2022/11/23 15:32:25;;;;;;;124.45;43.10;;;;;;;;;;5126255;27;20031;-47
2022/11/23 15:34:59;;;;;;;106.68;37.75;;;;;;;;;;5129196;27;20508;-45
2022/11/23 15:37:27;;;;;;;103.10;38.00;;;;;;;;;;5130262;27;20043;-51
2022/11/23 15:39:54;;;;;;;98.82;35.50;;;;;;;;;;5129505;27;20047;-46
2022/11/23 15:42:22;;;;;;;88.80;34.38;;;;;;;;;;5128931;27;20043;-45
2022/11/23 15:44:49;;;;;;;99.75;34.95;;;;;;;;;;5128587;27;20475;-47
2022/11/23 15:47:26;;;;;;;105.30;37.33;;;;;;;;;;5129272;27;20028;-45
2022/11/23 15:50:00;;;;;;;113.90;40.50;;;;;;;;;;5123823;27;20521;-49
2022/11/23 15:52:33;;;;;;;104.35;35.33;;;;;;;;;;5128778;27;20088;-47
2022/11/23 15:55:04;;;;;;;87.25;32.40;;;;;;;;;;5129032;27;20460;-44
2022/11/23 15:57:36;;;;;;;82.18;30.17;;;;;;;;;;5127962;27;20122;-47
2022/11/23 16:00:03;;;;;;;85.40;30.02;;;;;;;;;;5129201;27;20658;-47
2022/11/23 16:02:37;;;;;;;85.15;29.73;;;;;;;;;;5123791;27;20490;-47
2022/11/23 16:05:10;;;;;;;86.55;31.85;;;;;;;;;;5128599;27;20035;-46
2022/11/23 16:07:52;;;;;;;75.75;28.55;;;;;;;;;;5129450;27;20039;-44
2022/11/23 16:10:23;;;;;;;91.53;28.90;;;;;;;;;;5123937;27;20074;-46
2022/11/23 16:12:54;;;;;;;74.22;28.42;;;;;;;;;;5127121;27;20402;-46
2022/11/23 16:15:33;;;;;;;70.32;26.95;;;;;;;;;;5128849;27;20055;-48
2022/11/23 16:18:01;;;;;;;73.82;29.02;;;;;;;;;;5125451;27;20039;-47
2022/11/23 16:20:28;;;;;;;81.55;30.83;;;;;;;;;;5128550;27;20062;-48
2022/11/23 16:22:55;;;;;;;87.78;29.15;;;;;;;;;;5127540;27;20128;-46
2022/11/23 16:25:22;;;;;;;76.18;28.42;;;;;;;;;;5129233;27;20406;-46
2022/11/23 16:27:57;;;;;;;95.35;32.70;;;;;;;;;;5126908;27;20038;-48
2022/11/23 16:30:38;;;;;;;81.65;31.42;;;;;;;;;;5128126;27;20046;-47
2022/11/23 16:33:04;;;;;;;84.50;32.10;;;;;;;;;;5125721;27;20731;-45
2022/11/23 16:35:31;;;;;;;93.95;33.00;;;;;;;;;;5128681;27;20088;-47
2022/11/23 16:37:57;;;;;;;85.80;31.65;;;;;;;;;;5128471;27;20055;-46
2022/11/23 16:40:24;;;;;;;90.50;31.85;;;;;;;;;;5129333;27;20039;-45
2022/11/23 16:42:51;;;;;;;92.00;33.35;;;;;;;;;;5127281;27;20046;-45
2022/11/23 16:45:18;;;;;;;80.85;29.23;;;;;;;;;;5128357;27;20126;-46
2022/11/23 16:47:52;;;;;;;80.38;29.75;;;;;;;;;;5128648;27;20065;-45
2022/11/23 16:50:19;;;;;;;72.10;27.90;;;;;;;;;;5128880;27;20506;-44
2022/11/23 16:52:45;;;;;;;79.28;29.33;;;;;;;;;;5109491;28;20066;-45
2022/11/23 16:55:12;;;;;;;94.43;34.45;;;;;;;;;;5129266;27;20039;-45
2022/11/23 16:57:38;;;;;;;77.75;32.95;;;;;;;;;;5128150;27;20031;-44
2022/11/23 17:00:06;;;;;;;89.85;34.13;;;;;;;;;;5128559;27;20047;-44
2022/11/23 17:02:33;;;;;;;87.70;33.72;;;;;;;;;;5128375;28;20044;-44
2022/11/23 17:05:00;;;;;;;90.95;34.42;;;;;;;;;;5128431;27;20066;-44
2022/11/23 17:07:26;;;;;;;81.75;31.65;;;;;;;;;;5129704;28;20031;-46
2022/11/23 17:09:53;;;;;;;96.43;34.55;;;;;;;;;;5127801;27;20130;-44
2022/11/23 17:12:20;;;;;;;100.65;32.60;;;;;;;;;;5128675;27;20046;-44
2022/11/23 17:14:48;;;;;;;86.07;32.90;;;;;;;;;;5127784;27;20043;-45
2022/11/23 17:17:20;;;;;;;85.40;32.75;;;;;;;;;;5110089;28;20055;-46
2022/11/23 17:19:50;;;;;;;103.18;33.92;;;;;;;;;;5126485;27;20696;-40
2022/11/23 17:22:17;;;;;;;106.53;34.85;;;;;;;;;;5127993;27;20039;-40
2022/11/23 17:24:44;;;;;;;77.90;29.27;;;;;;;;;;5131140;27;20668;-40
2022/11/23 17:27:12;;;;;;;82.10;31.08;;;;;;;;;;5129388;27;20043;-40
2022/11/23 17:29:38;;;;;;;87.97;33.15;;;;;;;;;;5133140;27;20043;-42
2022/11/23 17:32:09;;;;;;;86.70;30.90;;;;;;;;;;5133377;27;20079;-40
2022/11/23 17:34:35;;;;;;;83.30;30.40;;;;;;;;;;5115108;27;20047;-41
2022/11/23 17:37:02;;;;;;;84.70;31.20;;;;;;;;;;5133201;27;20039;-40
2022/11/23 17:39:28;;;;;;;87.07;33.08;;;;;;;;;;5132271;27;20057;-40
2022/11/23 17:41:56;;;;;;;90.60;31.73;;;;;;;;;;5132612;27;20092;-40
2022/11/23 17:44:30;;;;;;;114.35;37.80;;;;;;;;;;5130036;27;20603;-40
2022/11/23 17:46:57;;;;;;;102.80;35.10;;;;;;;;;;5132932;27;20085;-41
2022/11/23 17:49:27;;;;;;;103.55;34.80;;;;;;;;;;5115540;27;20548;-41
2022/11/23 17:51:54;;;;;;;93.30;32.75;;;;;;;;;;5132855;27;20053;-41
2022/11/23 17:54:21;;;;;;;83.32;30.25;;;;;;;;;;5132477;27;20684;-41
2022/11/23 17:56:48;;;;;;;84.43;31.95;;;;;;;;;;5129055;27;20039;-40
2022/11/23 17:59:15;;;;;;;80.20;30.58;;;;;;;;;;5132956;27;20045;-41
2022/11/23 18:01:42;;;;;;;89.20;32.08;;;;;;;;;;5114179;27;20138;-40
2022/11/23 18:04:08;;;;;;;78.22;30.55;;;;;;;;;;5132269;27;20039;-42
2022/11/23 18:06:35;;;;;;;94.18;35.22;;;;;;;;;;5113613;27;20398;-41
2022/11/23 18:09:01;;;;;;;90.32;33.50;;;;;;;;;;5131285;27;20566;-41
2022/11/23 18:11:28;;;;;;;92.68;30.48;;;;;;;;;;5132533;27;20034;-42
2022/11/23 18:13:54;;;;;;;88.00;30.98;;;;;;;;;;5132144;27;20047;-41
2022/11/23 18:16:21;;;;;;;93.53;33.97;;;;;;;;;;5133561;27;20042;-41
2022/11/23 18:18:49;;;;;;;95.93;33.08;;;;;;;;;;5132109;27;20044;-41
2022/11/23 18:21:16;;;;;;;82.40;31.75;;;;;;;;;;5131918;27;20114;-41
2022/11/23 18:23:43;;;;;;;81.45;28.58;;;;;;;;;;5131638;27;20042;-41
2022/11/23 18:26:15;;;;;;;80.90;30.60;;;;;;;;;;5132012;27;20059;-41
2022/11/23 18:28:41;;;;;;;95.93;31.55;;;;;;;;;;5125803;27;20050;-40
2022/11/23 18:31:08;;;;;;;87.07;31.27;;;;;;;;;;5132529;27;20035;-43
2022/11/23 18:33:35;;;;;;;79.60;29.95;;;;;;;;;;5130762;27;20066;-41
2022/11/23 18:36:01;;;;;;;71.43;25.63;;;;;;;;;;5131784;27;20039;-40
2022/11/23 18:38:31;;;;;;;73.07;28.17;;;;;;;;;;5127340;27;20039;-40
2022/11/23 18:40:58;;;;;;;72.97;28.85;;;;;;;;;;5131456;27;20057;-41
2022/11/23 18:43:25;;;;;;;70.15;27.70;;;;;;;;;;5132494;27;20054;-41
2022/11/23 18:45:51;;;;;;;74.22;28.88;;;;;;;;;;5113570;27;20474;-41
2022/11/23 18:48:18;;;;;;;75.22;26.98;;;;;;;;;;5131231;27;20123;-41
2022/11/23 18:50:45;;;;;;;82.97;30.45;;;;;;;;;;5131834;27;20043;-41
2022/11/23 18:53:11;;;;;;;91.88;33.20;;;;;;;;;;5131424;27;20042;-41
2022/11/23 18:55:37;;;;;;;83.07;32.28;;;;;;;;;;5132543;27;20039;-41
2022/11/23 18:58:04;;;;;;;85.03;31.95;;;;;;;;;;5131334;27;20072;-41
2022/11/23 19:00:31;;;;;;;86.75;33.03;;;;;;;;;;5131363;27;20043;-40
2022/11/23 19:02:58;;;;;;;94.10;35.38;;;;;;;;;;5131294;27;20058;-41
2022/11/23 19:05:26;;;;;;;83.80;32.35;;;;;;;;;;5131515;27;20126;-40
2022/11/23 19:07:56;;;;;;;90.25;32.25;;;;;;;;;;5131245;27;20114;-41
2022/11/23 19:10:22;;;;;;;88.10;32.33;;;;;;;;;;5130496;27;20051;-41
2022/11/23 19:12:49;;;;;;;71.07;26.85;;;;;;;;;;5128964;27;20031;-40
2022/11/23 19:15:15;;;;;;;70.93;25.60;;;;;;;;;;5130860;27;20037;-41
2022/11/23 19:17:42;;;;;;;74.38;26.73;;;;;;;;;;5130712;27;20043;-41
2022/11/23 19:20:09;;;;;;;77.95;27.85;;;;;;;;;;5131337;27;20046;-41
2022/11/23 19:22:35;;;;;;;75.97;27.35;;;;;;;;;;5129690;27;20038;-40
2022/11/23 19:25:02;;;;;;;74.35;27.73;;;;;;;;;;5130459;27;20387;-40
2022/11/23 19:27:30;;;;;;;92.32;33.15;;;;;;;;;;5126186;27;20122;-40
2022/11/23 19:29:56;;;;;;;74.63;26.83;;;;;;;;;;5130880;27;20583;-40
2022/11/23 19:32:23;;;;;;;82.68;30.98;;;;;;;;;;5126734;27;20096;-40
2022/11/23 19:34:49;;;;;;;91.70;31.73;;;;;;;;;;5130632;27;20050;-40
2022/11/23 19:37:16;;;;;;;77.47;30.00;;;;;;;;;;5112638;27;20479;-40
2022/11/23 19:39:42;;;;;;;72.90;28.48;;;;;;;;;;5129700;27;20031;-41
2022/11/23 19:42:09;;;;;;;88.00;30.50;;;;;;;;;;5130558;27;20027;-41
2022/11/23 19:44:35;;;;;;;88.30;31.23;;;;;;;;;;5130847;27;20110;-41
2022/11/23 19:47:02;;;;;;;94.20;32.53;;;;;;;;;;5129567;27;20123;-41
2022/11/23 19:49:35;;;;;;;75.75;28.85;;;;;;;;;;5129100;27;20104;-41
2022/11/23 19:52:04;;;;;;;92.68;33.83;;;;;;;;;;5130349;27;20618;-41
2022/11/23 19:54:30;;;;;;;95.95;32.00;;;;;;;;;;5126300;27;20035;-41
2022/11/23 19:56:56;;;;;;;100.03;35.38;;;;;;;;;;5130345;27;20058;-41
2022/11/23 19:59:24;;;;;;;94.18;34.75;;;;;;;;;;5130265;27;20058;-42
2022/11/23 20:01:50;;;;;;;93.32;32.10;;;;;;;;;;5128113;27;20051;-41
2022/11/23 20:04:17;;;;;;;100.63;34.40;;;;;;;;;;5130517;27;20119;-42
2022/11/23 20:06:43;;;;;;;92.65;31.98;;;;;;;;;;5125951;27;20115;-40
2022/11/23 20:09:18;;;;;;;87.38;29.27;;;;;;;;;;5129595;27;20059;-40
2022/11/23 20:11:44;;;;;;;84.85;30.80;;;;;;;;;;5129829;27;20042;-40
2022/11/23 20:14:16;;;;;;;298.08;74.40;;;;;;;;;;5052082;27;20335;-42
2022/11/23 20:16:42;;;;;;;100.07;33.28;;;;;;;;;;5129252;27;20053;-42
2022/11/23 20:19:09;;;;;;;98.07;33.88;;;;;;;;;;5130537;27;20047;-42
2022/11/23 20:21:36;;;;;;;94.82;32.95;;;;;;;;;;5129868;27;20069;-42
2022/11/23 20:24:06;;;;;;;95.25;32.60;;;;;;;;;;5129689;27;20167;-43
2022/11/23 20:26:34;;;;;;;100.53;36.55;;;;;;;;;;5126192;27;20043;-42
2022/11/23 20:29:02;;;;;;;88.40;31.38;;;;;;;;;;5123999;27;20035;-42
2022/11/23 20:31:29;;;;;;;89.15;29.02;;;;;;;;;;5129866;27;20039;-41
2022/11/23 20:33:56;;;;;;;81.03;29.42;;;;;;;;;;5128353;27;20060;-41
2022/11/23 20:36:24;;;;;;;81.10;29.02;;;;;;;;;;5129339;27;20046;-41
2022/11/23 20:38:51;;;;;;;80.55;27.48;;;;;;;;;;5129405;27;20042;-40
2022/11/23 20:41:25;;;;;;;75.15;29.48;;;;;;;;;;5129544;27;20035;-40
2022/11/23 20:43:54;;;;;;;80.28;29.50;;;;;;;;;;5129179;27;20067;-40
2022/11/23 20:46:21;;;;;;;80.70;28.48;;;;;;;;;;5128221;27;20043;-40
2022/11/23 20:49:07;;;;;;;81.05;28.67;;;;;;;;;;5124861;27;20049;-40
2022/11/23 20:51:34;;;;;;;76.95;27.08;;;;;;;;;;5123673;27;20035;-41
2022/11/23 20:54:01;;;;;;;89.07;30.10;;;;;;;;;;5128226;27;20037;-41
2022/11/23 20:56:28;;;;;;;81.82;30.33;;;;;;;;;;5127188;27;20093;-41
2022/11/23 20:58:55;;;;;;;82.07;28.65;;;;;;;;;;5128996;28;20514;-41
2022/11/23 21:01:22;;;;;;;71.60;27.13;;;;;;;;;;5127853;27;20053;-41
2022/11/23 21:03:53;;;;;;;94.60;31.25;;;;;;;;;;5128569;28;20096;-42
2022/11/23 21:06:20;;;;;;;80.00;27.38;;;;;;;;;;5129231;28;20043;-41
2022/11/23 21:08:47;;;;;;;76.07;28.83;;;;;;;;;;5124604;28;20035;-41
2022/11/23 21:14:07;;;;;;;93.93;29.40;;;;;;;;;;5127682;28;20489;-42
2022/11/23 21:16:44;;;;;;;77.10;28.98;;;;;;;;;;5126585;28;20047;-42
2022/11/23 21:19:11;;;;;;;82.03;30.02;;;;;;;;;;5129333;28;20418;-42
2022/11/23 21:21:38;;;;;;;78.93;27.23;;;;;;;;;;5129359;28;20038;-41
2022/11/23 21:24:05;;;;;;;82.70;29.73;;;;;;;;;;5128465;28;20042;-41
2022/11/23 21:26:32;;;;;;;92.90;29.55;;;;;;;;;;5128988;27;20055;-41
2022/11/23 21:28:58;;;;;;;83.55;29.52;;;;;;;;;;5128814;27;20027;-41
2022/11/23 21:31:25;;;;;;;72.47;26.58;;;;;;;;;;5129940;28;20054;-42
2022/11/23 21:33:52;;;;;;;63.33;25.00;;;;;;;;;;5127071;28;20475;-42
2022/11/23 21:36:21;;;;;;;71.63;26.58;;;;;;;;;;5128923;28;20039;-42
2022/11/23 21:38:47;;;;;;;83.63;29.27;;;;;;;;;;5128552;28;20039;-42
2022/11/23 21:41:15;;;;;;;75.88;28.55;;;;;;;;;;5128314;28;20050;-42
2022/11/23 21:43:41;;;;;;;87.15;28.63;;;;;;;;;;5129829;28;20503;-42
2022/11/23 21:46:10;;;;;;;70.18;26.13;;;;;;;;;;5129235;28;20035;-42
2022/11/23 21:48:37;;;;;;;73.15;28.33;;;;;;;;;;5128544;28;20035;-42
2022/11/23 21:51:09;;;;;;;87.60;27.92;;;;;;;;;;5128697;28;20578;-43
2022/11/23 21:53:37;;;;;;;67.50;26.65;;;;;;;;;;5125158;28;20044;-42
2022/11/23 21:56:05;;;;;;;69.90;25.88;;;;;;;;;;5129048;28;20174;-42
2022/11/23 21:58:32;;;;;;;72.75;26.23;;;;;;;;;;5129733;28;20039;-42
2022/11/23 22:01:11;;;;;;;72.85;26.75;;;;;;;;;;5128297;28;20054;-42
2022/11/23 22:03:39;;;;;;;71.03;27.17;;;;;;;;;;5128651;28;20041;-42
2022/11/23 22:06:26;;;;;;;73.47;28.30;;;;;;;;;;5125276;28;20383;-42
2022/11/23 22:08:54;;;;;;;82.45;27.38;;;;;;;;;;5128804;27;20111;-42
2022/11/23 22:11:21;;;;;;;67.32;23.92;;;;;;;;;;5132510;27;20039;-42
2022/11/23 22:13:51;;;;;;;77.40;26.38;;;;;;;;;;5132789;27;20542;-41
2022/11/23 22:16:22;;;;;;;76.53;27.92;;;;;;;;;;5132465;27;20117;-41
2022/11/23 22:18:49;;;;;;;75.68;28.48;;;;;;;;;;5129781;27;20122;-41
2022/11/23 22:21:23;;;;;;;81.78;28.63;;;;;;;;;;5132088;27;20038;-42
2022/11/23 22:23:50;;;;;;;76.18;28.52;;;;;;;;;;5128944;27;20043;-42
2022/11/23 22:26:17;;;;;;;80.90;28.13;;;;;;;;;;5131827;27;20258;-42
2022/11/23 22:28:45;;;;;;;84.45;29.48;;;;;;;;;;5132060;27;20043;-42
2022/11/23 22:31:13;;;;;;;85.13;29.23;;;;;;;;;;5132968;27;20047;-42
2022/11/23 22:33:40;;;;;;;70.72;26.20;;;;;;;;;;5132037;27;20031;-42
2022/11/23 22:36:17;;;;;;;80.32;28.40;;;;;;;;;;5113297;27;20039;-42
2022/11/23 22:38:44;;;;;;;84.28;28.90;;;;;;;;;;5132062;27;20039;-42
2022/11/23 22:41:15;;;;;;;73.47;27.48;;;;;;;;;;5127823;27;20123;-42
2022/11/23 22:43:42;;;;;;;73.85;26.40;;;;;;;;;;5132645;27;20046;-41
2022/11/23 22:46:10;;;;;;;71.85;28.15;;;;;;;;;;5132144;27;20553;-42
2022/11/23 22:48:38;;;;;;;74.47;26.38;;;;;;;;;;5131433;27;20039;-42
2022/11/23 22:51:05;;;;;;;75.18;27.52;;;;;;;;;;5131771;27;20043;-42
2022/11/23 22:53:32;;;;;;;71.60;26.55;;;;;;;;;;5131687;27;20056;-41
2022/11/23 22:56:00;;;;;;;71.90;26.15;;;;;;;;;;5131451;27;20043;-41
2022/11/23 22:58:27;;;;;;;66.05;24.02;;;;;;;;;;5132208;27;20050;-40
2022/11/23 23:00:55;;;;;;;70.22;24.70;;;;;;;;;;5129859;27;20047;-41
2022/11/23 23:03:22;;;;;;;65.97;23.30;;;;;;;;;;5131660;27;20058;-42
2022/11/23 23:05:52;;;;;;;70.55;24.67;;;;;;;;;;5130856;27;20039;-42
2022/11/23 23:08:19;;;;;;;66.15;25.23;;;;;;;;;;5131631;27;20035;-42
2022/11/23 23:10:45;;;;;;;65.55;23.90;;;;;;;;;;5131144;27;20551;-42
2022/11/23 23:13:12;;;;;;;58.88;23.38;;;;;;;;;;5120500;27;20070;-42
2022/11/23 23:15:39;;;;;;;66.82;24.42;;;;;;;;;;5131136;27;20049;-42
2022/11/23 23:18:06;;;;;;;72.43;23.63;;;;;;;;;;5127313;27;20050;-42
2022/11/23 23:20:33;;;;;;;75.90;28.08;;;;;;;;;;5131146;27;20039;-41
2022/11/23 23:22:59;;;;;;;71.47;26.88;;;;;;;;;;5130894;27;20050;-42
2022/11/23 23:25:26;;;;;;;65.40;23.63;;;;;;;;;;5131668;27;20463;-42
2022/11/23 23:27:53;;;;;;;84.15;27.58;;;;;;;;;;5130895;27;20406;-43
2022/11/23 23:30:20;;;;;;;81.45;27.20;;;;;;;;;;5130650;27;20595;-43
2022/11/23 23:32:46;;;;;;;91.15;27.58;;;;;;;;;;5130625;27;20049;-43
2022/11/23 23:35:13;;;;;;;79.60;26.48;;;;;;;;;;5131401;27;20039;-42
2022/11/23 23:37:40;;;;;;;71.45;23.58;;;;;;;;;;5131963;27;20043;-42
2022/11/23 23:40:06;;;;;;;73.78;27.08;;;;;;;;;;5130563;27;20050;-42